Time;durP1;ratioP1;P1;durP2;ratioP2;P2;SDS_P1;SDS_P2;PMS_P1;PMS_P2;Temp;Humidity;BMP_temperature;BMP_pressure;BME280_temperature;BME280_humidity;BME280_pressure;Samples;Min_cycle;Max_cycle;Signal;HPM_P1;HPM_P2
2023/12/19 00:02:24;;;;;;;;;32.00;25.75;;;;;6.72;81.97;102734.66;5078697;28;46868;-69
2023/12/19 00:04:49;;;;;;;;;33.25;29.00;;;;;6.68;82.13;102720.44;5078658;28;45315;-69
2023/12/19 00:07:14;;;;;;;;;27.50;24.25;;;;;6.58;82.68;102693.72;5066686;28;45473;-69
2023/12/19 00:09:40;;;;;;;;;30.75;28.00;;;;;6.56;82.78;102691.03;5060739;28;45303;-69
2023/12/19 00:12:07;;;;;;;;;36.75;33.75;;;;;6.59;82.67;102676.94;5076432;28;45802;-69
2023/12/19 00:14:33;;;;;;;;;31.75;29.25;;;;;6.72;82.62;102697.50;5077822;28;45372;-69
2023/12/19 00:17:00;;;;;;;;;28.25;24.75;;;;;6.58;82.82;102670.75;5058228;28;45388;-69
2023/12/19 00:19:25;;;;;;;;;29.25;28.25;;;;;6.75;82.55;102699.28;5077660;28;45385;-69
2023/12/19 00:21:50;;;;;;;;;26.25;25.75;;;;;6.73;82.62;102688.63;5077528;28;45490;-69
2023/12/19 00:24:16;;;;;;;;;32.50;25.75;;;;;6.56;82.34;102651.25;5078682;28;45426;-69
2023/12/19 00:26:41;;;;;;;;;32.75;29.00;;;;;6.49;82.48;102646.72;5078308;28;45428;-69
2023/12/19 00:29:06;;;;;;;;;28.75;27.50;;;;;6.49;82.80;102636.09;5078792;28;45358;-69
2023/12/19 00:31:32;;;;;;;;;35.00;30.00;;;;;6.59;83.00;102637.13;5059445;28;59314;-69
2023/12/19 00:33:57;;;;;;;;;42.00;34.75;;;;;6.64;83.29;102649.59;5064914;28;45354;-69
2023/12/19 00:36:23;;;;;;;;;31.25;25.75;;;;;6.62;83.16;102648.69;5078356;27;45252;-69
2023/12/19 00:38:49;;;;;;;;;30.00;24.25;;;;;6.61;83.38;102652.19;5078331;28;45244;-69
2023/12/19 00:41:17;;;;;;;;;33.00;27.75;;;;;6.49;83.29;102617.53;5059816;28;48683;-69
2023/12/19 00:43:44;;;;;;;;;31.50;25.25;;;;;6.54;83.42;102620.25;5060099;28;46195;-69
2023/12/19 00:46:09;;;;;;;;;28.00;26.50;;;;;6.70;82.91;102634.63;5078264;28;45521;-69
2023/12/19 00:48:35;;;;;;;;;36.00;27.50;;;;;6.69;83.50;102620.47;5076905;28;45683;-69
2023/12/19 00:51:01;;;;;;;;;31.25;28.25;;;;;6.71;83.24;102620.50;5056837;28;47593;-69
2023/12/19 00:53:26;;;;;;;;;32.50;29.25;;;;;6.74;83.39;102624.06;5078083;28;45360;-69
2023/12/19 00:55:52;;;;;;;;;25.75;23.50;;;;;6.66;83.69;102613.34;5078098;27;45501;-69
2023/12/19 00:58:17;;;;;;;;;33.00;25.25;;;;;6.60;83.44;102597.34;5078250;28;45528;-69
2023/12/19 01:00:42;;;;;;;;;28.75;24.25;;;;;6.66;83.42;102602.72;5060295;28;47643;-69
2023/12/19 01:03:08;;;;;;;;;34.50;31.25;;;;;6.57;82.91;102604.38;5081240;28;47755;-69
2023/12/19 01:05:33;;;;;;;;;27.75;27.00;;;;;6.83;83.07;102642.81;5062032;28;45349;-70
2023/12/19 01:07:58;;;;;;;;;31.00;30.50;;;;;6.84;83.56;102643.69;5051362;28;45721;-69
2023/12/19 01:10:24;;;;;;;;;35.00;30.75;;;;;6.80;83.15;102636.53;5080585;28;45468;-69
2023/12/19 01:12:49;;;;;;;;;30.50;27.75;;;;;6.90;83.14;102648.16;5081366;28;45378;-69
2023/12/19 01:15:14;;;;;;;;;30.75;28.75;;;;;6.79;82.84;102619.72;5081139;28;50072;-69
2023/12/19 01:17:40;;;;;;;;;33.00;29.50;;;;;6.90;82.87;102646.44;5062788;28;49919;-69
2023/12/19 01:20:05;;;;;;;;;39.25;32.25;;;;;6.86;82.62;102637.50;5062137;28;47817;-69
2023/12/19 01:22:31;;;;;;;;;31.25;26.50;;;;;6.93;83.01;102653.53;5081306;27;45400;-69
2023/12/19 01:24:56;;;;;;;;;34.75;30.00;;;;;6.93;82.62;102651.75;5073013;28;45418;-69
2023/12/19 01:27:21;;;;;;;;;32.50;29.25;;;;;6.91;82.46;102656.16;5081036;27;45587;-69
2023/12/19 01:29:47;;;;;;;;;29.75;26.50;;;;;7.07;82.32;102686.47;5080788;28;52630;-69
2023/12/19 01:32:13;;;;;;;;;31.00;28.75;;;;;6.94;82.82;102661.50;5081155;28;45344;-69
2023/12/19 01:34:38;;;;;;;;;40.75;33.50;;;;;6.97;82.83;102652.72;5080897;27;45437;-69
2023/12/19 01:37:04;;;;;;;;;30.00;26.75;;;;;6.98;82.84;102660.69;5079881;28;45456;-69
2023/12/19 01:39:29;;;;;;;;;32.00;24.50;;;;;6.85;83.07;102627.78;5080652;27;45503;-69
2023/12/19 01:41:55;;;;;;;;;34.00;25.50;;;;;6.90;82.94;102632.25;5062811;28;45563;-69
2023/12/19 01:44:20;;;;;;;;;29.75;25.25;;;;;6.94;82.58;102619.03;5079763;27;45382;-69
2023/12/19 01:46:46;;;;;;;;;25.25;24.50;;;;;6.90;82.68;102611.91;5080729;27;45450;-69
2023/12/19 01:49:11;;;;;;;;;28.00;25.00;;;;;6.90;83.04;102605.69;5062226;28;47305;-69
2023/12/19 01:51:37;;;;;;;;;31.00;27.25;;;;;6.82;82.80;102595.88;5068747;28;45474;-69
2023/12/19 01:54:07;;;;;;;;;28.50;26.00;;;;;6.96;83.23;102613.75;5080942;28;45382;-69
2023/12/19 01:56:33;;;;;;;;;23.75;23.00;;;;;6.86;83.21;102591.50;5062451;28;45673;-69
2023/12/19 01:59:00;;;;;;;;;28.25;24.00;;;;;6.95;82.85;102618.16;5060983;28;46996;-69
2023/12/19 02:01:27;;;;;;;;;28.00;24.50;;;;;6.97;82.89;102629.69;5080833;28;45890;-69
2023/12/19 02:03:52;;;;;;;;;37.00;25.75;;;;;6.85;82.94;102597.69;5080458;28;45426;-69
2023/12/19 02:06:21;;;;;;;;;25.50;23.25;;;;;6.93;83.22;102611.94;5076187;28;45501;-69
2023/12/19 02:08:47;;;;;;;;;24.00;22.25;;;;;6.83;83.40;102591.44;5079656;28;46554;-69
2023/12/19 02:11:12;;;;;;;;;24.00;21.75;;;;;6.89;83.53;102602.16;5058466;28;45448;-69
2023/12/19 02:13:38;;;;;;;;;24.25;21.75;;;;;6.90;83.33;102597.72;5073537;28;45379;-69
2023/12/19 02:16:04;;;;;;;;;23.50;22.25;;;;;7.09;83.33;102620.09;5058822;28;46012;-69
2023/12/19 02:18:29;;;;;;;;;28.50;25.25;;;;;7.11;83.39;102623.66;5061222;28;46829;-69
2023/12/19 02:20:55;;;;;;;;;25.50;23.25;;;;;7.05;83.12;102620.06;5079065;28;45505;-69
2023/12/19 02:23:21;;;;;;;;;23.25;16.75;;;;;7.02;83.22;102604.09;5062041;28;45476;-69
2023/12/19 02:25:46;;;;;;;;;26.75;24.00;;;;;7.16;83.22;102625.50;5058565;28;45405;-69
2023/12/19 02:28:12;;;;;;;;;33.25;28.50;;;;;7.18;83.03;102620.19;5073906;28;45476;-69
2023/12/19 02:30:38;;;;;;;;;43.25;38.25;;;;;7.27;82.85;102628.28;5080324;28;45326;-69
2023/12/19 02:33:04;;;;;;;;;45.00;37.00;;;;;7.19;82.74;102612.25;5076397;28;45243;-69
2023/12/19 02:35:29;;;;;;;;;42.25;36.50;;;;;7.11;82.88;102598.00;5062242;28;45557;-69
2023/12/19 02:37:55;;;;;;;;;47.50;38.50;;;;;7.23;82.84;102614.09;5068270;28;46948;-69
2023/12/19 02:40:21;;;;;;;;;40.75;37.00;;;;;7.21;83.17;102620.25;5060306;28;45484;-69
2023/12/19 02:42:46;;;;;;;;;49.25;39.75;;;;;7.23;82.82;102615.81;5080008;28;45241;-69
2023/12/19 02:45:12;;;;;;;;;38.50;34.00;;;;;7.16;83.25;102595.41;5080050;28;45346;-69
2023/12/19 02:47:38;;;;;;;;;43.50;37.75;;;;;7.02;83.30;102563.38;5060994;28;46824;-69
2023/12/19 02:50:05;;;;;;;;;38.25;34.00;;;;;7.22;82.98;102604.31;5079874;28;45858;-69
2023/12/19 02:52:30;;;;;;;;;39.00;37.25;;;;;7.16;82.94;102575.03;5061737;28;45465;-69
2023/12/19 02:54:55;;;;;;;;;30.50;28.00;;;;;7.30;82.89;102596.44;5079979;28;45339;-69
2023/12/19 02:57:21;;;;;;;;;29.50;25.75;;;;;7.28;83.35;102590.22;5060673;28;47525;-69
2023/12/19 02:59:46;;;;;;;;;30.50;26.50;;;;;7.25;82.93;102574.25;5079835;28;45424;-69
2023/12/19 03:02:12;;;;;;;;;29.50;22.75;;;;;7.26;83.21;102572.50;5079858;28;45585;-69
2023/12/19 03:04:40;;;;;;;;;31.50;29.75;;;;;7.43;83.07;102581.50;5061134;28;45543;-69
2023/12/19 03:07:07;;;;;;;;;37.00;27.75;;;;;7.37;83.09;102577.03;5066583;28;45307;-69
2023/12/19 03:09:32;;;;;;;;;27.50;21.75;;;;;7.32;82.84;102561.94;5078816;28;45402;-69
2023/12/19 03:12:06;;;;;;;;;29.25;22.25;;;;;7.32;83.11;102565.47;5079719;28;45737;-69
2023/12/19 03:14:33;;;;;;;;;23.00;22.50;;;;;7.29;82.82;102545.97;5048665;28;45347;-69
2023/12/19 03:16:59;;;;;;;;;25.00;22.50;;;;;7.43;83.13;102565.56;5079261;28;46194;-69
2023/12/19 03:19:24;;;;;;;;;29.75;23.75;;;;;7.55;82.99;102584.31;5079504;28;45710;-69
2023/12/19 03:21:50;;;;;;;;;19.00;15.50;;;;;7.40;83.04;102569.09;5079504;28;45636;-69
2023/12/19 03:24:15;;;;;;;;;18.50;16.50;;;;;7.40;82.79;102560.22;5057772;28;45885;-69
2023/12/19 03:26:41;;;;;;;;;28.25;21.00;;;;;7.41;82.88;102544.28;5073261;28;45398;-69
2023/12/19 03:29:06;;;;;;;;;28.75;24.75;;;;;7.32;82.82;102536.25;5079424;28;45445;-69
2023/12/19 03:31:31;;;;;;;;;24.00;20.25;;;;;7.43;82.69;102541.66;5075189;28;45510;-69
2023/12/19 03:33:57;;;;;;;;;22.25;18.00;;;;;7.32;83.05;102520.31;5061081;28;45562;-69
2023/12/19 03:36:22;;;;;;;;;23.75;21.25;;;;;7.34;83.21;102529.19;5078187;28;45333;-69
2023/12/19 03:38:49;;;;;;;;;27.75;22.75;;;;;7.50;82.84;102553.22;5079077;28;45373;-69
2023/12/19 03:41:14;;;;;;;;;26.50;24.25;;;;;7.53;82.90;102550.59;5058608;28;45355;-69
2023/12/19 03:43:40;;;;;;;;;25.25;19.75;;;;;7.45;82.81;102525.72;5079281;28;45307;-69
2023/12/19 03:46:07;;;;;;;;;30.50;26.00;;;;;7.64;82.78;102561.34;5078952;28;45522;-69
2023/12/19 03:48:34;;;;;;;;;21.50;19.00;;;;;7.65;82.90;102556.06;5078929;28;45757;-69
2023/12/19 03:51:00;;;;;;;;;27.00;22.25;;;;;7.60;83.03;102550.69;5079061;28;45385;-69
2023/12/19 03:53:26;;;;;;;;;22.00;20.50;;;;;7.56;82.77;102540.00;5079094;28;45482;-69
2023/12/19 03:55:52;;;;;;;;;22.50;19.75;;;;;7.50;82.88;102531.97;5078814;28;45713;-69
2023/12/19 03:58:17;;;;;;;;;29.25;23.25;;;;;7.61;82.56;102538.28;5060843;28;45307;-69
2023/12/19 04:00:42;;;;;;;;;23.50;18.75;;;;;7.60;83.06;102529.44;5041869;28;45458;-69
2023/12/19 04:03:08;;;;;;;;;20.00;18.75;;;;;7.60;82.86;102528.50;5078738;28;45431;-69
2023/12/19 04:05:33;;;;;;;;;23.25;19.00;;;;;7.73;82.23;102534.84;5059011;28;56061;-69
2023/12/19 04:07:58;;;;;;;;;22.50;19.25;;;;;7.64;82.89;102524.13;5048579;28;45368;-69
2023/12/19 04:10:24;;;;;;;;;17.25;14.25;;;;;7.62;82.47;102516.16;5078477;28;52772;-69
2023/12/19 04:12:49;;;;;;;;;27.00;26.00;;;;;7.62;82.74;102502.88;5078680;28;45347;-69
2023/12/19 04:15:14;;;;;;;;;18.25;16.00;;;;;7.59;83.09;102486.88;5078568;28;48019;-69
2023/12/19 04:17:40;;;;;;;;;25.75;21.50;;;;;7.58;82.53;102486.00;5078685;27;45545;-69
2023/12/19 04:20:06;;;;;;;;;25.00;22.75;;;;;7.55;82.93;102469.13;5078644;28;45449;-69
2023/12/19 04:22:31;;;;;;;;;22.25;16.75;;;;;7.65;82.64;102472.75;5078617;28;45604;-69
2023/12/19 04:24:57;;;;;;;;;25.75;21.50;;;;;7.75;82.57;102488.78;5060276;28;47309;-69
2023/12/19 04:27:22;;;;;;;;;32.00;23.50;;;;;7.76;82.83;102479.91;5060253;28;45759;-69
2023/12/19 04:29:47;;;;;;;;;25.25;20.50;;;;;7.71;82.72;102457.72;5060586;28;45461;-69
2023/12/19 04:32:14;;;;;;;;;22.50;20.00;;;;;7.73;83.11;102455.09;5075151;28;45456;-69
2023/12/19 04:34:39;;;;;;;;;22.00;21.25;;;;;7.49;83.01;102429.25;5078364;28;45646;-69
2023/12/19 04:37:04;;;;;;;;;23.50;21.50;;;;;7.55;83.13;102458.50;5077585;28;45566;-69
2023/12/19 04:39:30;;;;;;;;;21.50;19.75;;;;;7.54;83.30;102439.00;5062526;28;45764;-69
2023/12/19 04:41:55;;;;;;;;;22.50;20.25;;;;;7.62;83.17;102452.38;5081890;28;45457;-69
2023/12/19 04:44:22;;;;;;;;;28.25;23.00;;;;;7.74;83.16;102459.53;5081783;28;45391;-69
2023/12/19 04:46:47;;;;;;;;;23.00;20.50;;;;;7.68;83.14;102452.38;5081905;28;45727;-69
2023/12/19 04:49:12;;;;;;;;;24.25;21.75;;;;;7.83;83.10;102472.00;5081713;28;45294;-69
2023/12/19 04:51:38;;;;;;;;;24.50;22.00;;;;;7.75;82.92;102459.56;5081908;28;45305;-69
2023/12/19 04:54:05;;;;;;;;;25.50;22.75;;;;;7.75;83.08;102458.63;5081653;28;45392;-69
2023/12/19 04:56:30;;;;;;;;;23.75;21.00;;;;;7.77;83.22;102463.09;5081666;28;45632;-69
2023/12/19 04:58:56;;;;;;;;;25.50;20.75;;;;;7.77;83.25;102443.59;5081829;28;45478;-69
2023/12/19 05:01:21;;;;;;;;;22.25;21.50;;;;;7.75;83.03;102435.63;5081774;28;45523;-69
2023/12/19 05:03:47;;;;;;;;;26.50;21.75;;;;;7.68;82.96;102425.81;5081010;28;53562;-69
2023/12/19 05:06:17;;;;;;;;;28.75;21.75;;;;;7.91;83.26;102462.31;5077068;28;45448;-69
2023/12/19 05:08:44;;;;;;;;;18.75;17.75;;;;;7.71;82.88;102430.28;5073529;28;45333;-69
2023/12/19 05:11:09;;;;;;;;;28.75;26.00;;;;;7.88;83.48;102443.66;5079540;28;45530;-69
2023/12/19 05:13:34;;;;;;;;;23.25;20.75;;;;;7.77;82.93;102415.25;5081350;28;45303;-69
2023/12/19 05:16:14;;;;;;;;;22.25;19.00;;;;;7.78;83.07;102416.13;5062941;28;45882;-69
2023/12/19 05:18:41;;;;;;;;;22.75;21.25;;;;;7.89;83.29;102435.69;5061428;28;45478;-69
2023/12/19 05:21:09;;;;;;;;;25.50;23.50;;;;;7.84;83.20;102418.84;5063184;28;45626;-69
2023/12/19 05:23:35;;;;;;;;;24.00;21.75;;;;;7.94;82.92;102433.94;5081185;28;46308;-69
2023/12/19 05:26:02;;;;;;;;;13.25;12.75;;;;;8.00;83.41;102437.53;5063044;28;46011;-69
2023/12/19 05:28:27;;;;;;;;;27.50;23.00;;;;;7.93;83.30;102418.88;5081254;28;45482;-69
2023/12/19 05:30:56;;;;;;;;;22.00;17.50;;;;;7.86;83.02;102410.88;5081433;28;45629;-69
2023/12/19 05:33:26;;;;;;;;;22.75;19.75;;;;;8.02;83.03;102434.00;5057686;28;46908;-69
2023/12/19 05:35:52;;;;;;;;;24.50;21.25;;;;;7.90;82.76;102404.66;5081273;28;45494;-69
2023/12/19 05:38:18;;;;;;;;;23.00;22.00;;;;;7.92;83.05;102405.59;5062457;28;45355;-69
2023/12/19 05:40:43;;;;;;;;;23.75;20.50;;;;;8.03;82.97;102410.94;5081205;28;45389;-69
2023/12/19 05:43:09;;;;;;;;;25.50;23.50;;;;;7.95;83.01;102393.19;5079536;28;45421;-69
2023/12/19 05:45:34;;;;;;;;;26.00;21.00;;;;;7.95;83.20;102392.28;5062918;28;45492;-69
2023/12/19 05:48:00;;;;;;;;;24.50;20.75;;;;;7.92;82.89;102386.97;5079318;28;45384;-69
2023/12/19 05:50:25;;;;;;;;;27.00;21.50;;;;;7.98;83.10;102401.19;5081076;28;45412;-69
2023/12/19 05:52:52;;;;;;;;;25.25;22.00;;;;;8.00;83.00;102418.91;5062236;28;46535;-69
2023/12/19 05:55:17;;;;;;;;;24.75;21.75;;;;;8.18;82.79;102436.72;5062705;28;45798;-69
2023/12/19 05:57:42;;;;;;;;;28.00;23.50;;;;;8.06;83.15;102427.81;5080667;28;45457;-69
2023/12/19 06:00:08;;;;;;;;;19.75;17.25;;;;;8.17;82.95;102449.16;5080840;28;45508;-69
2023/12/19 06:02:33;;;;;;;;;18.50;17.50;;;;;8.07;82.95;102434.00;5080620;28;45490;-69
2023/12/19 06:05:00;;;;;;;;;25.25;24.00;;;;;8.06;83.34;102416.28;5061767;28;45392;-69
2023/12/19 06:07:25;;;;;;;;;18.00;17.50;;;;;7.95;83.21;102387.88;5068420;28;45548;-69
2023/12/19 06:09:51;;;;;;;;;23.25;22.25;;;;;8.06;82.69;102413.63;5080787;28;45375;-69
2023/12/19 06:12:17;;;;;;;;;31.50;20.25;;;;;8.25;82.83;102435.88;5078500;28;46141;-69
2023/12/19 06:14:43;;;;;;;;;22.00;19.75;;;;;8.22;82.93;102426.13;5076731;28;46149;-69
2023/12/19 06:17:08;;;;;;;;;18.00;13.00;;;;;8.17;83.19;102409.25;5058427;28;45387;-69
2023/12/19 06:19:34;;;;;;;;;17.00;17.00;;;;;8.08;83.27;102394.13;5080417;28;45395;-69
2023/12/19 06:22:00;;;;;;;;;20.50;16.00;;;;;8.12;82.92;102414.53;5061981;28;47497;-69
2023/12/19 06:24:25;;;;;;;;;21.00;17.50;;;;;8.16;83.10;102423.41;5080408;28;45425;-69
2023/12/19 06:26:50;;;;;;;;;16.50;14.25;;;;;8.20;83.26;102443.81;5080095;28;45414;-69
2023/12/19 06:29:16;;;;;;;;;21.25;18.25;;;;;8.19;83.21;102436.75;5062058;28;45535;-69
2023/12/19 06:31:46;;;;;;;;;26.25;23.00;;;;;8.21;83.41;102448.28;5076338;28;45626;-69
2023/12/19 06:34:11;;;;;;;;;24.00;23.50;;;;;8.06;83.17;102425.16;5080119;28;45449;-69
2023/12/19 06:36:38;;;;;;;;;21.50;19.75;;;;;8.06;83.24;102417.16;5080168;28;46002;-69
2023/12/19 06:39:04;;;;;;;;;27.50;22.75;;;;;8.14;83.52;102434.06;5058298;28;45576;-69
2023/12/19 06:41:29;;;;;;;;;23.00;18.75;;;;;8.07;82.99;102415.38;5059164;28;46909;-69
2023/12/19 06:43:55;;;;;;;;;20.75;18.50;;;;;8.03;83.14;102395.00;5077231;28;45384;-69
2023/12/19 06:46:20;;;;;;;;;25.00;21.25;;;;;8.21;83.52;102434.97;5079981;28;45481;-69
2023/12/19 06:48:46;;;;;;;;;28.50;26.25;;;;;8.14;83.03;102425.19;5061302;28;45359;-69
2023/12/19 06:51:27;;;;;;;;;21.75;20.00;;;;;8.16;83.22;102426.97;5079633;28;45438;-69
2023/12/19 06:53:56;;;;;;;;;22.25;19.25;;;;;8.13;83.35;102424.28;5072086;28;45402;-69
2023/12/19 06:56:26;;;;;;;;;19.50;15.00;;;;;8.07;83.12;102413.63;5079564;28;45401;-72
2023/12/19 06:58:52;;;;;;;;;23.00;19.50;;;;;8.15;83.54;102418.97;5061586;28;45338;-71
2023/12/19 07:01:17;;;;;;;;;17.75;17.75;;;;;8.13;83.20;102403.00;5075925;28;45560;-73
2023/12/19 07:03:43;;;;;;;;;18.25;18.25;;;;;8.01;83.26;102375.50;5079330;28;45659;-74
2023/12/19 07:06:12;;;;;;;;;22.75;20.50;;;;;8.13;83.33;102388.81;5057132;28;45465;-73
2023/12/19 07:08:37;;;;;;;;;18.75;18.25;;;;;8.09;83.15;102392.38;5079048;28;45359;-73
2023/12/19 07:11:03;;;;;;;;;20.25;18.75;;;;;8.15;83.17;102385.31;5077424;28;49416;-73
2023/12/19 07:13:28;;;;;;;;;23.75;17.75;;;;;8.22;82.75;102402.19;5061587;28;46097;-73
2023/12/19 07:15:54;;;;;;;;;22.00;19.50;;;;;8.04;82.93;102349.78;5060863;28;45570;-73
2023/12/19 07:18:19;;;;;;;;;23.25;20.25;;;;;8.22;82.57;102380.91;5079158;28;45322;-73
2023/12/19 07:20:45;;;;;;;;;23.75;20.25;;;;;8.11;82.58;102348.91;5060404;28;47169;-73
2023/12/19 07:23:10;;;;;;;;;24.25;20.25;;;;;8.09;82.81;102340.06;5079354;28;45348;-71
2023/12/19 07:25:35;;;;;;;;;24.25;20.25;;;;;8.07;82.74;102317.88;5078757;28;45382;-71
2023/12/19 07:28:02;;;;;;;;;19.25;18.25;;;;;8.21;82.81;102340.97;5060494;28;45568;-71
2023/12/19 07:30:28;;;;;;;;;17.75;15.25;;;;;8.27;82.56;102347.22;5061013;28;46674;-73
2023/12/19 07:32:53;;;;;;;;;20.00;18.75;;;;;8.33;82.42;102356.97;5059766;28;45405;-69
2023/12/19 07:35:19;;;;;;;;;11.25;10.75;;;;;8.35;82.29;102361.44;5078664;28;56075;-69
2023/12/19 07:37:45;;;;;;;;;21.50;17.75;;;;;8.35;82.20;102364.09;5078978;28;45485;-69
2023/12/19 07:40:11;;;;;;;;;27.50;23.50;;;;;8.35;82.21;102358.75;5043481;28;46143;-69
2023/12/19 07:42:37;;;;;;;;;21.75;19.25;;;;;8.30;82.30;102363.19;5060809;28;45646;-69
2023/12/19 07:45:03;;;;;;;;;20.50;19.00;;;;;8.33;82.49;102373.81;5076626;28;45311;-69
2023/12/19 07:47:28;;;;;;;;;26.50;21.25;;;;;8.29;82.63;102363.19;5054506;28;45579;-69
2023/12/19 07:49:54;;;;;;;;;22.50;21.25;;;;;8.24;82.63;102349.84;5070275;28;46403;-69
2023/12/19 07:52:19;;;;;;;;;24.00;20.50;;;;;8.32;82.35;102356.09;5054505;28;45737;-69
2023/12/19 07:54:44;;;;;;;;;22.25;19.75;;;;;8.39;82.53;102362.31;5078732;28;45383;-69
2023/12/19 07:57:10;;;;;;;;;22.75;19.75;;;;;8.37;82.26;102350.78;5079046;28;45366;-69
2023/12/19 07:59:35;;;;;;;;;25.50;18.50;;;;;8.37;82.26;102347.22;5078746;28;45264;-69
2023/12/19 08:02:00;;;;;;;;;22.00;19.00;;;;;8.37;82.32;102340.16;5075655;28;49075;-69
2023/12/19 08:04:26;;;;;;;;;14.00;13.00;;;;;8.39;82.22;102340.16;5078366;28;45555;-69
2023/12/19 08:06:51;;;;;;;;;19.50;19.50;;;;;8.36;82.20;102343.69;5077083;28;45378;-69
2023/12/19 08:09:17;;;;;;;;;14.00;13.50;;;;;8.41;82.50;102344.56;5078858;28;45313;-69
2023/12/19 08:11:42;;;;;;;;;22.25;18.75;;;;;8.33;82.26;102339.22;5079770;28;45604;-69
2023/12/19 08:14:08;;;;;;;;;19.25;18.00;;;;;8.37;82.48;102347.22;5082302;27;45695;-67
2023/12/19 08:16:33;;;;;;;;;23.25;21.00;;;;;8.32;82.55;102339.25;5084860;27;45449;-67
2023/12/19 08:18:58;;;;;;;;;19.50;19.50;;;;;8.35;82.51;102337.47;5087150;27;45545;-67
2023/12/19 08:21:23;;;;;;;;;20.75;17.25;;;;;8.28;82.32;102321.50;5081527;28;63062;-67
2023/12/19 08:23:49;;;;;;;;;16.50;15.50;;;;;8.25;82.57;102319.72;5079710;27;45476;-69
2023/12/19 08:26:15;;;;;;;;;18.00;17.75;;;;;8.23;82.22;102323.25;5080047;27;45739;-69
2023/12/19 08:28:40;;;;;;;;;20.00;15.00;;;;;8.29;82.65;102333.91;5078876;27;59219;-69
2023/12/19 08:31:06;;;;;;;;;24.00;21.00;;;;;8.31;82.93;102340.13;5079044;28;45415;-69
2023/12/19 08:33:31;;;;;;;;;21.50;16.75;;;;;8.29;82.81;102341.91;5080893;28;45487;-69
2023/12/19 08:35:56;;;;;;;;;22.75;18.25;;;;;8.24;82.67;102331.22;5076686;28;45517;-69
2023/12/19 08:38:21;;;;;;;;;19.00;17.25;;;;;8.29;83.24;102347.22;5074006;27;51071;-69
2023/12/19 08:40:47;;;;;;;;;21.50;18.25;;;;;8.33;82.62;102355.19;5085396;27;45656;-69
2023/12/19 08:43:12;;;;;;;;;18.25;16.50;;;;;8.27;83.00;102335.66;5080364;28;49135;-69
2023/12/19 08:45:38;;;;;;;;;18.50;18.00;;;;;8.29;82.75;102333.91;5080448;27;45842;-69
2023/12/19 08:48:04;;;;;;;;;24.25;17.00;;;;;8.32;82.47;102334.81;5080391;28;46115;-69
2023/12/19 08:50:30;;;;;;;;;21.75;19.00;;;;;8.34;82.57;102342.78;5083055;27;45416;-69
2023/12/19 08:52:55;;;;;;;;;19.00;18.00;;;;;8.37;82.58;102348.13;5082684;27;45490;-69
2023/12/19 08:55:22;;;;;;;;;21.50;18.25;;;;;8.40;82.56;102353.44;5079330;27;48263;-69
2023/12/19 08:57:48;;;;;;;;;19.25;18.00;;;;;8.38;82.79;102347.22;5063020;28;47273;-69
2023/12/19 09:00:17;;;;;;;;;21.25;17.00;;;;;8.37;82.81;102332.16;5077970;27;45539;-69
2023/12/19 09:02:46;;;;;;;;;21.25;17.00;;;;;8.45;82.90;102340.19;5079358;28;45439;-69
2023/12/19 09:05:16;;;;;;;;;12.00;10.25;;;;;8.45;82.52;102334.84;5083675;27;45588;-69
2023/12/19 09:07:42;;;;;;;;;24.75;22.00;;;;;8.48;82.31;102332.22;5079679;28;45755;-69
2023/12/19 09:10:10;;;;;;;;;21.75;19.00;;;;;8.44;82.51;102312.69;5080730;27;45843;-69
2023/12/19 09:12:36;;;;;;;;;20.75;14.00;;;;;8.47;82.39;102306.47;5079309;28;45423;-69
2023/12/19 09:15:02;;;;;;;;;18.00;15.00;;;;;8.50;82.74;102307.38;5080409;28;45296;-69
2023/12/19 09:17:28;;;;;;;;;19.00;17.00;;;;;8.48;82.33;102311.78;5074310;28;45663;-69
2023/12/19 09:19:58;;;;;;;;;24.75;20.50;;;;;8.47;82.40;102295.81;5084006;27;45421;-69
2023/12/19 09:22:25;;;;;;;;;24.50;20.00;;;;;8.44;82.58;102287.84;5080483;27;45633;-69
2023/12/19 09:24:50;;;;;;;;;18.50;17.00;;;;;8.47;82.70;102293.16;5062156;28;45766;-69
2023/12/19 09:27:16;;;;;;;;;27.75;22.50;;;;;8.49;82.74;102286.97;5079488;28;46055;-69
2023/12/19 09:29:43;;;;;;;;;19.00;17.25;;;;;8.50;82.58;102286.09;5080747;27;45347;-69
2023/12/19 09:32:09;;;;;;;;;17.25;15.25;;;;;8.42;82.46;102277.19;5055612;28;45404;-69
2023/12/19 09:34:36;;;;;;;;;22.50;18.50;;;;;8.18;82.58;102245.22;5078066;28;45718;-69
2023/12/19 09:37:02;;;;;;;;;19.25;14.50;;;;;8.28;82.70;102262.94;5057755;28;46506;-69
2023/12/19 09:39:27;;;;;;;;;20.75;17.50;;;;;8.33;82.62;102279.81;5079281;27;45439;-69
2023/12/19 09:41:53;;;;;;;;;19.75;17.00;;;;;8.27;82.46;102280.69;5057841;28;45498;-69
2023/12/19 09:44:19;;;;;;;;;20.00;17.75;;;;;8.44;82.60;102311.81;5076990;28;45422;-69
2023/12/19 09:46:49;;;;;;;;;17.25;13.00;;;;;8.45;82.81;102301.16;5060187;28;46650;-69
2023/12/19 09:49:20;;;;;;;;;20.50;14.75;;;;;8.42;82.53;102294.91;5079423;28;45824;-69
2023/12/19 09:51:47;;;;;;;;;20.50;18.50;;;;;8.40;83.08;102278.91;5079180;27;45529;-69
2023/12/19 09:54:13;;;;;;;;;17.25;17.25;;;;;8.46;83.08;102276.31;5078068;27;45743;-69
2023/12/19 09:56:38;;;;;;;;;22.00;15.25;;;;;8.41;82.96;102272.72;5061864;27;48440;-69
2023/12/19 09:59:04;;;;;;;;;14.50;14.00;;;;;8.45;82.92;102281.63;5078154;28;45644;-69
2023/12/19 10:01:30;;;;;;;;;22.75;18.50;;;;;8.52;83.04;102294.97;5074997;27;45499;-69
2023/12/19 10:03:55;;;;;;;;;19.00;15.50;;;;;8.55;82.92;102294.06;5078593;28;45543;-69
2023/12/19 10:06:27;;;;;;;;;19.75;15.25;;;;;8.61;82.82;102288.75;5077145;27;46409;-69
2023/12/19 10:08:52;;;;;;;;;17.50;14.00;;;;;8.46;82.95;102262.13;5085604;27;45413;-69
2023/12/19 10:11:18;;;;;;;;;18.50;15.75;;;;;8.66;82.79;102280.78;5076133;28;45466;-69
2023/12/19 10:13:46;;;;;;;;;18.75;17.00;;;;;8.47;83.00;102243.50;5076254;28;46046;-69
2023/12/19 10:16:12;;;;;;;;;17.00;15.25;;;;;8.69;82.71;102270.13;5077398;28;46046;-69
2023/12/19 10:18:39;;;;;;;;;20.00;16.25;;;;;8.53;82.52;102240.81;5080951;27;45814;-69
2023/12/19 10:21:08;;;;;;;;;17.25;16.75;;;;;8.77;82.34;102280.75;5077379;28;45335;-69
2023/12/19 10:23:37;;;;;;;;;16.25;15.25;;;;;8.62;82.46;102244.38;5079250;28;45457;-69
2023/12/19 10:26:04;;;;;;;;;15.00;13.00;;;;;8.77;83.07;102273.69;5075888;28;48285;-69
2023/12/19 10:28:30;;;;;;;;;16.00;15.50;;;;;8.76;82.93;102258.56;5061590;28;45431;-69
2023/12/19 10:31:16;;;;;;;;;18.75;17.50;;;;;8.62;82.68;102220.41;5077879;28;45703;-69
2023/12/19 10:33:46;;;;;;;;;15.75;15.75;;;;;8.66;82.53;102220.41;5054621;28;45769;-69
2023/12/19 10:36:25;;;;;;;;;20.75;16.25;;;;;8.63;83.17;102207.09;5074528;28;45817;-69
2023/12/19 10:38:58;;;;;;;;;18.75;17.25;;;;;8.60;82.77;102185.81;5057956;28;45383;-69
2023/12/19 10:41:27;;;;;;;;;16.00;14.50;;;;;8.67;83.05;102210.66;5079250;28;45391;-69
2023/12/19 10:43:58;;;;;;;;;16.00;14.25;;;;;8.58;83.10;102194.69;5078584;28;45570;-69
2023/12/19 10:46:27;;;;;;;;;15.50;14.50;;;;;8.55;83.16;102176.94;5073524;27;47319;-69
2023/12/19 10:48:57;;;;;;;;;19.25;18.00;;;;;8.76;83.38;102204.44;5075821;28;45552;-69
2023/12/19 10:51:41;;;;;;;;;19.00;15.25;;;;;8.81;83.09;102208.88;5056959;28;45658;-70
2023/12/19 10:54:10;;;;;;;;;24.75;18.50;;;;;8.84;83.38;102210.66;5070920;28;45450;-69
2023/12/19 10:57:07;;;;;;;;;16.50;14.00;;;;;8.81;83.01;102208.88;5062479;27;47381;-70
2023/12/19 10:59:58;;;;;;;;;17.50;15.50;;;;;8.82;83.15;102201.75;5075106;28;45470;-69
2023/12/19 11:02:57;;;;;;;;;18.00;14.25;;;;;8.81;83.40;102202.66;5070605;28;45676;-69
2023/12/19 11:05:31;;;;;;;;;21.00;18.75;;;;;8.81;83.15;102205.31;5074545;28;45394;-69
2023/12/19 11:08:03;;;;;;;;;15.50;14.50;;;;;8.71;83.45;102180.50;5073553;28;45450;-69
2023/12/19 11:10:35;;;;;;;;;16.75;14.25;;;;;8.68;83.60;102167.19;5066974;28;45568;-69
2023/12/19 11:13:00;;;;;;;;;15.75;15.75;;;;;8.89;83.67;102187.56;5076459;28;45637;-69
2023/12/19 11:15:27;;;;;;;;;16.25;15.00;;;;;8.75;83.32;102160.94;5079127;28;45623;-69